createdAt,value
2019-03-19T00:00:21.897Z,23.57
2019-03-19T00:02:50.815Z,20.13
2019-03-19T00:05:19.755Z,23.33
2019-03-19T00:07:50.626Z,24.00
2019-03-19T00:10:19.228Z,20.77
2019-03-19T00:12:48.185Z,28.90
2019-03-19T00:15:17.087Z,24.10
2019-03-19T00:17:46.034Z,26.13
2019-03-19T00:20:16.059Z,27.57
2019-03-19T00:22:45.018Z,24.77
2019-03-19T00:25:13.923Z,19.27
2019-03-19T00:27:42.892Z,24.17
2019-03-19T00:30:13.811Z,24.23
2019-03-19T00:32:42.758Z,21.93
2019-03-19T00:35:11.677Z,26.70
2019-03-19T00:37:40.662Z,24.97
2019-03-19T00:40:14.551Z,18.30
2019-03-19T00:42:43.495Z,30.20
2019-03-19T00:45:15.301Z,23.10
2019-03-19T00:47:44.258Z,21.50
2019-03-19T00:50:14.272Z,26.80
2019-03-19T00:52:43.244Z,22.73
2019-03-19T00:55:12.429Z,24.90
2019-03-19T00:57:41.387Z,23.97
2019-03-19T01:00:21.078Z,23.53
2019-03-19T01:02:50.035Z,16.90
2019-03-19T01:05:18.938Z,25.40
2019-03-19T01:07:47.889Z,29.23
2019-03-19T01:10:17.792Z,30.97
2019-03-19T01:12:46.990Z,29.77
2019-03-19T01:15:16.003Z,21.60
2019-03-19T01:17:44.947Z,25.93
2019-03-19T01:20:15.953Z,30.47
2019-03-19T01:22:44.983Z,27.17
2019-03-19T01:25:13.882Z,23.07
2019-03-19T01:27:42.854Z,32.10
2019-03-19T01:30:16.479Z,20.60
2019-03-19T01:32:45.440Z,24.03
2019-03-19T01:35:14.344Z,22.30
2019-03-19T01:37:43.281Z,31.73
2019-03-19T01:40:12.997Z,29.00
2019-03-19T01:42:41.948Z,31.43
2019-03-19T01:45:11.931Z,22.40
2019-03-19T01:47:40.980Z,32.50
2019-03-19T01:50:14.648Z,29.67
2019-03-19T01:52:43.600Z,31.17
2019-03-19T01:55:14.569Z,29.43
2019-03-19T01:57:43.482Z,24.93
2019-03-19T02:00:19.246Z,28.23
2019-03-19T02:02:48.219Z,34.23
2019-03-19T02:05:36.456Z,32.03
2019-03-19T02:08:05.402Z,28.83
2019-03-19T02:10:34.297Z,23.67
2019-03-19T02:13:03.313Z,31.47
2019-03-19T02:15:32.210Z,27.73
2019-03-19T02:18:01.163Z,34.30
2019-03-19T02:20:30.170Z,32.37
2019-03-19T02:22:59.080Z,21.43
2019-03-19T02:25:28.023Z,27.77
2019-03-19T02:27:56.947Z,24.50
2019-03-19T02:30:26.008Z,26.13
2019-03-19T02:32:54.906Z,22.90
2019-03-19T02:35:23.876Z,24.23
2019-03-19T02:37:52.867Z,22.00
2019-03-19T02:40:21.813Z,35.80
2019-03-19T02:42:50.724Z,26.93
2019-03-19T02:45:19.701Z,30.73
2019-03-19T02:47:48.689Z,22.83
2019-03-19T02:50:18.092Z,23.50
2019-03-19T02:52:47.040Z,22.97
2019-03-19T02:55:15.990Z,35.00
2019-03-19T02:57:44.905Z,15.87
2019-03-19T03:00:18.261Z,31.80
2019-03-19T03:02:47.155Z,22.63
2019-03-19T03:05:17.744Z,28.30
2019-03-19T03:07:46.732Z,25.87
2019-03-19T03:10:15.802Z,28.07
2019-03-19T03:12:44.685Z,22.10
2019-03-19T03:15:15.327Z,34.33
2019-03-19T03:17:44.242Z,18.40
2019-03-19T03:20:16.124Z,28.80
2019-03-19T03:22:45.140Z,33.97
2019-03-19T03:25:15.290Z,27.87
2019-03-19T03:27:44.190Z,16.87
2019-03-19T03:30:21.634Z,36.53
2019-03-19T03:32:50.555Z,18.57
2019-03-19T03:35:19.631Z,32.93
2019-03-19T03:37:48.620Z,29.07
2019-03-19T03:40:18.662Z,22.57
2019-03-19T03:42:47.571Z,32.43
2019-03-19T03:45:17.615Z,32.80
2019-03-19T03:47:46.530Z,33.63
2019-03-19T03:50:16.928Z,36.63
2019-03-19T03:52:45.934Z,26.83
2019-03-19T03:55:15.739Z,40.33
2019-03-19T03:57:44.691Z,29.13
2019-03-19T04:00:24.440Z,34.33
2019-03-19T04:02:53.357Z,19.07
2019-03-19T04:05:22.349Z,31.73
2019-03-19T04:07:51.280Z,38.10
2019-03-19T04:10:20.486Z,38.90
2019-03-19T04:12:49.467Z,27.93
2019-03-19T04:15:19.086Z,26.73
2019-03-19T04:17:48.067Z,35.50
2019-03-19T04:20:18.279Z,29.33
2019-03-19T04:22:47.322Z,35.33
2019-03-19T04:25:16.625Z,34.80
2019-03-19T04:27:45.599Z,31.10
2019-03-19T04:30:21.717Z,35.73
2019-03-19T04:32:50.694Z,30.20
2019-03-19T04:35:19.596Z,39.23
2019-03-19T04:37:48.548Z,32.60
2019-03-19T04:40:17.565Z,24.23
2019-03-19T04:42:46.498Z,28.40
2019-03-19T04:45:16.428Z,31.07
2019-03-19T04:47:45.398Z,29.63
2019-03-19T04:50:16.353Z,27.07
2019-03-19T04:52:45.431Z,30.20
2019-03-19T04:55:15.253Z,32.87
2019-03-19T04:57:44.203Z,24.73
2019-03-19T05:00:19.643Z,26.87
2019-03-19T05:02:48.630Z,35.53
2019-03-19T05:05:17.522Z,35.70
2019-03-19T05:07:46.482Z,34.47
2019-03-19T05:10:17.267Z,29.93
2019-03-19T05:12:46.616Z,30.63
2019-03-19T05:15:16.666Z,39.07
2019-03-19T05:17:45.616Z,30.10
2019-03-19T05:20:15.542Z,26.37
2019-03-19T05:22:44.496Z,37.93
2019-03-19T05:25:13.382Z,38.97
2019-03-19T05:27:42.283Z,30.10
2019-03-19T05:30:21.084Z,30.73
2019-03-19T05:32:50.039Z,34.57
2019-03-19T05:35:18.960Z,35.47
2019-03-19T05:37:47.856Z,41.93
2019-03-19T05:40:17.637Z,34.37
2019-03-19T05:42:46.615Z,33.87
2019-03-19T05:45:16.257Z,37.27
2019-03-19T05:47:45.174Z,30.80
2019-03-19T05:50:24.448Z,47.50
2019-03-19T05:52:53.355Z,30.80
2019-03-19T05:55:22.302Z,40.97
2019-03-19T05:57:51.225Z,32.40
2019-03-19T06:00:22.140Z,32.53
2019-03-19T06:02:51.088Z,36.43
2019-03-19T06:05:21.392Z,32.23
2019-03-19T06:07:50.633Z,37.07
2019-03-19T06:10:19.592Z,41.07
2019-03-19T06:12:48.818Z,34.23
2019-03-19T06:15:17.768Z,31.63
2019-03-19T06:17:46.673Z,48.77
2019-03-19T06:20:17.695Z,36.70
2019-03-19T06:22:46.607Z,42.87
2019-03-19T06:25:17.808Z,34.67
2019-03-19T06:27:46.863Z,32.90
2019-03-19T06:30:20.828Z,40.63
2019-03-19T06:32:49.783Z,34.97
2019-03-19T06:35:19.052Z,39.23
2019-03-19T06:37:47.997Z,28.90
2019-03-19T06:40:19.068Z,34.60
2019-03-19T06:42:48.019Z,33.43
2019-03-19T06:45:17.951Z,32.83
2019-03-19T06:47:46.991Z,33.70
2019-03-19T06:50:18.078Z,30.70
2019-03-19T06:52:47.080Z,28.30
2019-03-19T06:55:18.267Z,28.83
2019-03-19T06:57:47.268Z,27.30
2019-03-19T07:00:20.690Z,30.57
2019-03-19T07:02:49.880Z,23.70
2019-03-19T07:05:20.290Z,26.07
2019-03-19T07:07:49.367Z,31.90
2019-03-19T07:10:19.085Z,30.63
2019-03-19T07:12:48.088Z,24.87
2019-03-19T07:15:22.997Z,34.83
2019-03-19T07:17:51.959Z,31.50
2019-03-19T07:20:22.994Z,28.00
2019-03-19T07:22:52.061Z,26.17
2019-03-19T07:25:20.995Z,24.80
2019-03-19T07:27:49.940Z,28.07
2019-03-19T07:30:19.976Z,24.80
2019-03-19T07:32:48.979Z,19.90
2019-03-19T07:35:17.869Z,24.20
2019-03-19T07:37:46.839Z,29.40
2019-03-19T07:40:16.429Z,27.60
2019-03-19T07:42:45.871Z,26.07
2019-03-19T07:45:19.569Z,24.67
2019-03-19T07:47:48.585Z,16.83
2019-03-19T07:50:22.204Z,21.87
2019-03-19T07:52:51.181Z,19.00
2019-03-19T07:55:20.095Z,20.50
2019-03-19T07:57:49.143Z,20.27
2019-03-19T08:00:21.867Z,20.10
2019-03-19T08:02:51.032Z,18.90
2019-03-19T08:05:19.958Z,14.10
2019-03-19T08:07:48.935Z,21.23
2019-03-19T08:10:18.793Z,20.93
2019-03-19T08:12:47.820Z,20.27
2019-03-19T08:15:20.765Z,23.87
2019-03-19T08:17:49.694Z,19.97
2019-03-19T08:20:19.365Z,16.67
2019-03-19T08:22:48.348Z,19.03
2019-03-19T08:25:17.729Z,14.73
2019-03-19T08:27:46.698Z,22.80
2019-03-19T08:30:24.233Z,13.67
2019-03-19T08:32:52.667Z,16.77
2019-03-19T08:35:21.606Z,18.10
2019-03-19T08:37:50.606Z,12.87
2019-03-19T08:40:20.248Z,12.33
2019-03-19T08:42:49.231Z,8.80
2019-03-19T08:45:19.642Z,15.07
2019-03-19T08:47:48.588Z,15.40
2019-03-19T08:50:18.711Z,17.30
2019-03-19T08:52:47.665Z,10.67
2019-03-19T08:55:16.620Z,14.60
2019-03-19T08:57:45.570Z,11.53
2019-03-19T09:00:22.231Z,15.43
2019-03-19T09:02:51.178Z,14.87
2019-03-19T09:05:20.089Z,15.80
2019-03-19T09:07:49.034Z,16.30
2019-03-19T09:10:18.853Z,11.67
2019-03-19T09:12:48.761Z,15.93
2019-03-19T09:15:19.964Z,16.50
2019-03-19T09:17:48.978Z,16.77
2019-03-19T09:20:18.701Z,29.43
2019-03-19T09:22:48.763Z,22.53
2019-03-19T09:25:17.722Z,13.43
2019-03-19T09:27:46.686Z,21.83
2019-03-19T09:30:20.446Z,11.80
2019-03-19T09:32:49.559Z,16.77
2019-03-19T09:35:18.634Z,11.60
2019-03-19T09:37:57.787Z,9.80
2019-03-19T09:40:20.102Z,15.17
2019-03-19T09:42:49.761Z,15.87
2019-03-19T09:45:19.360Z,9.70
2019-03-19T09:47:48.428Z,14.30
2019-03-19T09:50:22.315Z,12.30
2019-03-19T09:52:51.259Z,19.47
2019-03-19T09:55:20.170Z,13.97
2019-03-19T09:57:49.094Z,15.33
2019-03-19T10:00:20.017Z,12.20
2019-03-19T10:02:49.030Z,10.10
2019-03-19T10:05:18.442Z,9.20
2019-03-19T10:07:48.434Z,8.73
2019-03-19T10:10:23.928Z,15.90
2019-03-19T10:12:52.884Z,13.60
2019-03-19T10:15:21.833Z,15.67
2019-03-19T10:17:50.736Z,10.10
2019-03-19T10:20:25.427Z,10.37
2019-03-19T10:22:54.336Z,8.63
2019-03-19T10:25:23.300Z,10.20
2019-03-19T10:27:52.203Z,13.63
2019-03-19T10:30:22.048Z,14.27
2019-03-19T10:32:50.962Z,11.83
2019-03-19T10:35:20.015Z,8.63
2019-03-19T10:37:48.911Z,9.37
2019-03-19T10:40:18.963Z,13.63
2019-03-19T10:42:47.880Z,11.87
2019-03-19T10:45:17.939Z,13.90
2019-03-19T10:47:46.835Z,16.37
2019-03-19T10:50:18.714Z,12.13
2019-03-19T10:52:47.619Z,11.87
2019-03-19T10:55:16.796Z,10.70
2019-03-19T10:57:45.816Z,13.37
2019-03-19T11:00:24.439Z,9.13
2019-03-19T11:02:53.883Z,13.97
2019-03-19T11:05:23.741Z,11.63
2019-03-19T11:07:53.846Z,11.33
2019-03-19T11:10:23.640Z,10.27
2019-03-19T11:12:53.131Z,13.70
2019-03-19T11:15:24.294Z,17.20
2019-03-19T11:17:53.404Z,9.53
2019-03-19T11:20:22.588Z,17.47
2019-03-19T11:22:51.464Z,15.47
2019-03-19T11:25:28.085Z,15.80
2019-03-19T11:27:56.998Z,6.70
2019-03-19T11:30:28.961Z,9.73
2019-03-19T11:32:57.905Z,12.57
2019-03-19T11:35:26.903Z,7.33
2019-03-19T11:37:55.848Z,9.47
2019-03-19T11:40:26.052Z,11.67
2019-03-19T11:42:55.381Z,11.20
2019-03-19T11:45:24.956Z,12.07
2019-03-19T11:47:53.958Z,13.37
2019-03-19T11:50:33.200Z,11.90
2019-03-19T11:53:01.330Z,9.27
2019-03-19T11:55:30.347Z,8.20
2019-03-19T11:57:59.252Z,10.47
2019-03-19T12:00:48.478Z,11.77
2019-03-19T12:03:17.489Z,9.00
2019-03-19T12:05:46.449Z,10.90
2019-03-19T12:08:16.041Z,12.50
2019-03-19T12:10:44.993Z,14.30
2019-03-19T12:13:13.932Z,10.77
2019-03-19T12:15:42.917Z,6.67
2019-03-19T12:18:11.819Z,13.23
2019-03-19T12:20:42.231Z,6.70
2019-03-19T12:23:11.165Z,7.00
2019-03-19T12:25:40.122Z,12.37
2019-03-19T12:28:09.999Z,8.67
2019-03-19T12:30:38.926Z,11.20
2019-03-19T12:33:07.908Z,9.47
2019-03-19T12:35:36.795Z,8.83
2019-03-19T12:38:05.738Z,9.03
2019-03-19T12:40:37.221Z,10.70
2019-03-19T12:43:05.803Z,10.23
2019-03-19T12:45:34.908Z,10.30
2019-03-19T12:48:03.971Z,7.93
2019-03-19T12:50:33.161Z,19.03
2019-03-19T12:53:02.119Z,7.13
2019-03-19T12:55:31.037Z,9.50
2019-03-19T12:58:01.293Z,6.20
2019-03-19T13:03:01.200Z,6.23
2019-03-19T13:05:30.122Z,7.30
2019-03-19T13:06:07.815Z,8.17
2019-03-19T13:07:59.105Z,6.10
2019-03-19T13:10:28.042Z,4.97
2019-03-19T13:12:57.060Z,9.37
2019-03-19T13:15:25.997Z,5.57
2019-03-19T13:17:55.323Z,10.23
2019-03-19T13:20:24.447Z,8.33
2019-03-19T13:22:53.504Z,4.77
2019-03-19T13:25:23.290Z,5.20
2019-03-19T13:27:52.325Z,5.30
2019-03-19T13:30:29.288Z,6.63
2019-03-19T13:32:58.279Z,8.67
2019-03-19T13:35:27.224Z,6.53
2019-03-19T13:37:56.166Z,7.97
2019-03-19T13:40:25.067Z,5.17
2019-03-19T13:42:54.988Z,4.40
2019-03-19T13:45:25.199Z,6.67
2019-03-19T13:47:54.127Z,5.73
2019-03-19T13:50:23.380Z,3.87
2019-03-19T13:52:53.459Z,7.73
2019-03-19T13:55:24.002Z,4.47
2019-03-19T13:57:54.227Z,2.67
2019-03-19T14:00:23.323Z,4.33
2019-03-19T14:02:53.015Z,6.47
2019-03-19T14:05:23.137Z,5.40
2019-03-19T14:07:52.179Z,4.87
2019-03-19T14:10:21.474Z,5.53
2019-03-19T14:12:50.558Z,6.67
2019-03-19T14:15:24.339Z,4.80
2019-03-19T14:17:53.240Z,2.87
2019-03-19T14:20:22.225Z,8.13
2019-03-19T14:22:51.251Z,7.03
2019-03-19T14:25:22.610Z,6.73
2019-03-19T14:27:53.160Z,4.40
2019-03-19T14:30:25.846Z,9.73
2019-03-19T14:32:54.861Z,6.33
2019-03-19T14:35:23.833Z,8.80
2019-03-19T14:37:52.743Z,7.70
2019-03-19T14:40:23.095Z,12.60
2019-03-19T14:42:52.609Z,9.27
2019-03-19T14:45:22.244Z,8.20
2019-03-19T14:47:51.228Z,10.40
2019-03-19T14:50:22.014Z,7.23
2019-03-19T14:52:50.932Z,6.77
2019-03-19T14:55:19.880Z,8.40
2019-03-19T14:57:50.792Z,7.50
2019-03-19T15:00:22.933Z,10.90
2019-03-19T15:02:51.861Z,7.33
2019-03-19T15:05:20.890Z,9.73
2019-03-19T15:07:49.808Z,7.50
2019-03-19T15:10:24.886Z,13.53
2019-03-19T15:12:53.787Z,7.80
2019-03-19T15:15:23.087Z,8.07
2019-03-19T15:17:52.042Z,12.03
2019-03-19T15:20:21.850Z,10.03
2019-03-19T15:22:50.803Z,5.03
2019-03-19T15:25:19.699Z,16.33
2019-03-19T15:27:48.652Z,7.70
2019-03-19T15:30:21.931Z,8.93
2019-03-19T15:32:50.876Z,8.83
2019-03-19T15:35:19.774Z,4.47
2019-03-19T15:37:48.723Z,6.83
2019-03-19T15:40:18.740Z,5.37
2019-03-19T15:42:47.693Z,9.27
2019-03-19T15:45:27.303Z,7.27
2019-03-19T15:47:56.546Z,8.77
2019-03-19T15:50:25.452Z,8.77
2019-03-19T15:52:54.417Z,9.00
2019-03-19T15:55:23.313Z,6.83
2019-03-19T15:57:52.264Z,7.00
2019-03-19T16:00:21.873Z,9.93
2019-03-19T16:02:50.834Z,10.03
2019-03-19T16:05:19.738Z,6.57
2019-03-19T16:07:48.678Z,5.23
2019-03-19T16:10:18.684Z,6.87
2019-03-19T16:12:47.626Z,8.40
2019-03-19T16:15:21.185Z,7.70
2019-03-19T16:17:51.435Z,9.37
2019-03-19T16:20:20.946Z,10.23
2019-03-19T16:22:50.198Z,8.47
2019-03-19T16:25:19.092Z,9.70
2019-03-19T16:27:48.027Z,6.40
2019-03-19T16:30:21.281Z,8.20
2019-03-19T16:32:50.234Z,9.30
2019-03-19T16:35:19.161Z,12.43
2019-03-19T16:37:48.087Z,10.60
2019-03-19T16:40:24.371Z,6.97
2019-03-19T16:42:53.318Z,9.20
2019-03-19T16:45:22.228Z,10.07
2019-03-19T16:47:51.123Z,9.30
2019-03-19T16:50:21.070Z,6.73
2019-03-19T16:52:49.993Z,12.87
2019-03-19T16:55:20.816Z,5.03
2019-03-19T16:57:49.718Z,10.90
2019-03-19T17:00:26.795Z,12.63
2019-03-19T17:02:55.690Z,9.93
2019-03-19T17:05:24.643Z,14.17
2019-03-19T17:07:53.546Z,9.97
2019-03-19T17:10:32.945Z,10.37
2019-03-19T17:13:01.858Z,10.63
2019-03-19T17:15:30.792Z,8.10
2019-03-19T17:17:59.697Z,8.50
2019-03-19T17:20:28.636Z,9.77
2019-03-19T17:22:57.544Z,6.33
2019-03-19T17:25:29.804Z,10.37
2019-03-19T17:27:58.711Z,10.67
2019-03-19T17:30:29.942Z,7.47
2019-03-19T17:32:58.827Z,9.30
2019-03-19T17:35:27.776Z,5.80
2019-03-19T17:37:56.683Z,9.33
2019-03-19T17:40:25.735Z,11.00
2019-03-19T17:42:54.645Z,7.33
2019-03-19T17:45:23.593Z,11.37
2019-03-19T17:47:52.509Z,10.97
2019-03-19T17:50:22.868Z,12.07
2019-03-19T17:52:53.081Z,6.83
2019-03-19T17:55:22.114Z,8.73
2019-03-19T17:57:51.010Z,5.77
2019-03-19T18:00:28.855Z,7.73
2019-03-19T18:02:57.860Z,8.77
2019-03-19T18:05:26.807Z,13.00
2019-03-19T18:07:55.700Z,17.33
2019-03-19T18:10:24.650Z,11.07
2019-03-19T18:12:53.554Z,10.43
2019-03-19T18:15:22.497Z,8.60
2019-03-19T18:17:51.409Z,10.83
2019-03-19T18:20:20.400Z,9.23
2019-03-19T18:22:49.301Z,10.83
2019-03-19T18:25:22.154Z,9.80
2019-03-19T18:27:51.194Z,8.67
2019-03-19T18:30:21.777Z,10.97
2019-03-19T18:32:50.719Z,13.47
2019-03-19T18:35:19.620Z,7.83
2019-03-19T18:37:48.572Z,7.90
2019-03-19T18:40:21.106Z,8.10
2019-03-19T18:42:50.047Z,7.90
2019-03-19T18:45:19.455Z,9.40
2019-03-19T18:47:48.401Z,7.00
2019-03-19T18:50:23.481Z,10.50
2019-03-19T18:52:52.529Z,7.13
2019-03-19T18:55:21.434Z,7.80
2019-03-19T18:57:50.388Z,9.47
2019-03-19T19:00:20.186Z,7.07
2019-03-19T19:02:50.826Z,12.23
2019-03-19T19:05:20.587Z,14.37
2019-03-19T19:07:49.530Z,9.43
2019-03-19T19:10:21.084Z,10.73
2019-03-19T19:12:49.635Z,11.97
2019-03-19T19:15:24.557Z,10.63
2019-03-19T19:17:53.512Z,10.40
2019-03-19T19:20:22.464Z,13.33
2019-03-19T19:22:51.413Z,6.13
2019-03-19T19:25:22.278Z,8.10
2019-03-19T19:27:51.227Z,13.53
2019-03-19T19:30:24.038Z,11.90
2019-03-19T19:33:01.374Z,7.77
2019-03-19T19:35:23.541Z,10.93
2019-03-19T19:37:52.506Z,8.77
2019-03-19T19:40:21.404Z,11.27
2019-03-19T19:42:50.443Z,13.93
2019-03-19T19:45:19.885Z,13.57
2019-03-19T19:47:48.884Z,10.93
2019-03-19T19:50:24.219Z,14.83
2019-03-19T19:52:53.179Z,14.13
2019-03-19T19:55:22.134Z,10.23
2019-03-19T19:57:51.281Z,10.20
2019-03-19T20:00:22.134Z,8.23
2019-03-19T20:02:51.116Z,15.90
2019-03-19T20:05:20.213Z,12.63
2019-03-19T20:07:49.215Z,10.07
2019-03-19T20:10:22.778Z,6.20
2019-03-19T20:12:51.766Z,11.97
2019-03-19T20:15:20.734Z,12.53
2019-03-19T20:17:49.659Z,10.23
2019-03-19T20:20:28.949Z,14.30
2019-03-19T20:22:57.921Z,8.30
2019-03-19T20:25:26.870Z,8.67
2019-03-19T20:27:55.810Z,12.53
2019-03-19T20:30:26.002Z,11.13
2019-03-19T20:32:54.945Z,9.07
2019-03-19T20:35:23.876Z,6.73
2019-03-19T20:37:52.812Z,9.67
2019-03-19T20:40:21.809Z,6.17
2019-03-19T20:42:50.747Z,7.80
2019-03-19T20:45:28.378Z,10.33
2019-03-19T20:47:57.475Z,14.60
2019-03-19T20:50:30.253Z,10.43
2019-03-19T20:52:59.186Z,11.57
2019-03-19T20:55:28.251Z,8.77
2019-03-19T20:57:57.152Z,12.17
2019-03-19T21:00:26.155Z,9.20
2019-03-19T21:02:55.059Z,12.43
2019-03-19T21:05:24.014Z,8.23
2019-03-19T21:07:52.939Z,9.57
2019-03-19T21:10:22.975Z,11.23
2019-03-19T21:12:52.105Z,9.03
2019-03-19T21:15:30.906Z,9.73
2019-03-19T21:18:00.908Z,11.20
2019-03-19T21:20:31.413Z,14.60
2019-03-19T21:23:01.998Z,7.63
2019-03-19T21:25:31.063Z,13.30
2019-03-19T21:28:01.579Z,12.60
2019-03-19T21:30:30.672Z,13.77
2019-03-19T21:32:59.659Z,10.70
2019-03-19T21:35:28.653Z,12.50
2019-03-19T21:37:57.544Z,10.07
2019-03-19T21:40:26.464Z,11.60
2019-03-19T21:42:57.655Z,9.53
2019-03-19T21:45:26.584Z,8.83
2019-03-19T21:47:55.799Z,14.20
2019-03-19T21:50:25.976Z,13.50
2019-03-19T21:52:56.459Z,9.00
2019-03-19T21:55:25.479Z,9.03
2019-03-19T21:57:54.778Z,21.10
2019-03-19T22:00:27.495Z,13.33
2019-03-19T22:02:56.562Z,11.03
2019-03-19T22:05:25.609Z,8.00
2019-03-19T22:07:54.637Z,11.53
2019-03-19T22:10:23.921Z,12.40
2019-03-19T22:12:54.486Z,18.50
2019-03-19T22:15:26.599Z,12.40
2019-03-19T22:17:55.571Z,16.97
2019-03-19T22:20:25.136Z,10.50
2019-03-19T22:22:54.162Z,12.57
2019-03-19T22:25:23.068Z,13.93
2019-03-19T22:27:52.264Z,15.27
2019-03-19T22:30:22.284Z,16.80
2019-03-19T22:32:51.249Z,14.03
2019-03-19T22:35:20.217Z,13.03
2019-03-19T22:37:49.258Z,18.97
2019-03-19T22:40:18.875Z,16.57
2019-03-19T22:42:47.816Z,16.83
2019-03-19T22:45:20.107Z,8.90
2019-03-19T22:47:49.099Z,11.93
2019-03-19T22:50:18.748Z,6.23
2019-03-19T22:52:47.963Z,11.47
2019-03-19T22:55:28.084Z,13.60
2019-03-19T22:57:47.577Z,19.07
2019-03-19T23:00:31.774Z,16.80
2019-03-19T23:03:00.719Z,9.27
2019-03-19T23:05:29.628Z,14.33
2019-03-19T23:07:58.967Z,13.93
2019-03-19T23:10:27.906Z,18.83
2019-03-19T23:12:56.817Z,11.17
2019-03-19T23:15:26.119Z,18.20
2019-03-19T23:17:55.068Z,21.03
2019-03-19T23:20:24.056Z,14.93
2019-03-19T23:22:53.059Z,12.10
2019-03-19T23:25:22.198Z,14.23
2019-03-19T23:27:51.088Z,9.00
2019-03-19T23:30:21.552Z,18.50
2019-03-19T23:32:50.539Z,10.80
2019-03-19T23:35:19.498Z,12.77
2019-03-19T23:37:48.657Z,10.07
2019-03-19T23:40:19.275Z,11.40
2019-03-19T23:42:48.186Z,21.30
2019-03-19T23:45:17.139Z,7.37
2019-03-19T23:47:46.038Z,12.17
2019-03-19T23:50:19.211Z,9.73
2019-03-19T23:52:48.107Z,12.03
2019-03-19T23:55:17.047Z,10.23
2019-03-19T23:57:45.946Z,10.43
